sensor_id;sensor_type;location;lat;lon;timestamp;P1;durP1;ratioP1;P2;durP2;ratioP2
67272;SDS011;54190;49.770;9.250;2023-03-14T00:00:37;1.80;;;1.10;;
67272;SDS011;54190;49.770;9.250;2023-03-14T00:03:02;2.07;;;1.00;;
67272;SDS011;54190;49.770;9.250;2023-03-14T00:05:28;1.80;;;1.03;;
67272;SDS011;54190;49.770;9.250;2023-03-14T00:07:54;2.20;;;1.00;;
67272;SDS011;54190;49.770;9.250;2023-03-14T00:10:19;2.70;;;1.10;;
67272;SDS011;54190;49.770;9.250;2023-03-14T00:12:46;3.07;;;1.70;;
67272;SDS011;54190;49.770;9.250;2023-03-14T00:15:12;2.20;;;1.20;;
67272;SDS011;54190;49.770;9.250;2023-03-14T00:17:38;2.60;;;1.10;;
67272;SDS011;54190;49.770;9.250;2023-03-14T00:20:04;3.60;;;1.20;;
67272;SDS011;54190;49.770;9.250;2023-03-14T00:22:36;2.97;;;1.10;;
67272;SDS011;54190;49.770;9.250;2023-03-14T00:25:03;2.83;;;1.20;;
67272;SDS011;54190;49.770;9.250;2023-03-14T00:27:30;2.67;;;1.20;;
67272;SDS011;54190;49.770;9.250;2023-03-14T00:29:57;2.20;;;1.20;;
67272;SDS011;54190;49.770;9.250;2023-03-14T00:32:22;2.17;;;1.10;;
67272;SDS011;54190;49.770;9.250;2023-03-14T00:34:48;2.37;;;1.10;;
67272;SDS011;54190;49.770;9.250;2023-03-14T00:37:14;2.60;;;1.33;;
67272;SDS011;54190;49.770;9.250;2023-03-14T00:39:40;2.10;;;1.23;;
67272;SDS011;54190;49.770;9.250;2023-03-14T00:42:05;2.27;;;1.20;;
67272;SDS011;54190;49.770;9.250;2023-03-14T00:44:31;2.53;;;1.50;;
67272;SDS011;54190;49.770;9.250;2023-03-14T00:46:57;3.10;;;1.20;;
67272;SDS011;54190;49.770;9.250;2023-03-14T00:49:23;4.03;;;1.20;;
67272;SDS011;54190;49.770;9.250;2023-03-14T00:51:50;2.10;;;1.30;;
67272;SDS011;54190;49.770;9.250;2023-03-14T00:54:16;2.43;;;1.20;;
67272;SDS011;54190;49.770;9.250;2023-03-14T00:56:42;2.37;;;1.47;;
67272;SDS011;54190;49.770;9.250;2023-03-14T00:59:08;1.83;;;1.20;;
67272;SDS011;54190;49.770;9.250;2023-03-14T01:01:34;3.43;;;1.10;;
67272;SDS011;54190;49.770;9.250;2023-03-14T01:03:59;3.53;;;1.30;;
67272;SDS011;54190;49.770;9.250;2023-03-14T01:06:26;2.73;;;1.20;;
67272;SDS011;54190;49.770;9.250;2023-03-14T01:08:53;3.90;;;1.33;;
67272;SDS011;54190;49.770;9.250;2023-03-14T01:11:30;4.73;;;1.77;;
67272;SDS011;54190;49.770;9.250;2023-03-14T01:13:57;2.67;;;1.40;;
67272;SDS011;54190;49.770;9.250;2023-03-14T01:16:24;7.43;;;1.47;;
67272;SDS011;54190;49.770;9.250;2023-03-14T01:18:51;2.97;;;1.27;;
67272;SDS011;54190;49.770;9.250;2023-03-14T01:21:22;3.10;;;1.30;;
67272;SDS011;54190;49.770;9.250;2023-03-14T01:23:53;3.33;;;1.30;;
67272;SDS011;54190;49.770;9.250;2023-03-14T01:26:20;2.63;;;1.20;;
67272;SDS011;54190;49.770;9.250;2023-03-14T01:28:49;6.57;;;1.43;;
67272;SDS011;54190;49.770;9.250;2023-03-14T01:31:17;2.60;;;1.37;;
67272;SDS011;54190;49.770;9.250;2023-03-14T01:33:43;2.03;;;1.20;;
67272;SDS011;54190;49.770;9.250;2023-03-14T01:36:09;3.10;;;1.43;;
67272;SDS011;54190;49.770;9.250;2023-03-14T01:38:36;2.80;;;1.37;;
67272;SDS011;54190;49.770;9.250;2023-03-14T01:41:05;2.60;;;1.30;;
67272;SDS011;54190;49.770;9.250;2023-03-14T01:43:32;1.93;;;1.20;;
67272;SDS011;54190;49.770;9.250;2023-03-14T01:50:59;3.43;;;1.30;;
67272;SDS011;54190;49.770;9.250;2023-03-14T01:53:26;2.80;;;1.23;;
67272;SDS011;54190;49.770;9.250;2023-03-14T01:55:53;5.80;;;1.30;;
67272;SDS011;54190;49.770;9.250;2023-03-14T01:58:25;2.40;;;1.20;;
67272;SDS011;54190;49.770;9.250;2023-03-14T02:00:56;3.97;;;1.50;;
67272;SDS011;54190;49.770;9.250;2023-03-14T02:03:23;2.70;;;1.23;;
67272;SDS011;54190;49.770;9.250;2023-03-14T02:05:52;5.00;;;1.53;;
67272;SDS011;54190;49.770;9.250;2023-03-14T02:08:21;3.17;;;1.50;;
67272;SDS011;54190;49.770;9.250;2023-03-14T02:10:55;3.80;;;1.43;;
67272;SDS011;54190;49.770;9.250;2023-03-14T02:13:30;5.40;;;1.83;;
67272;SDS011;54190;49.770;9.250;2023-03-14T02:16:14;4.23;;;1.47;;
67272;SDS011;54190;49.770;9.250;2023-03-14T02:18:58;2.17;;;1.37;;
67272;SDS011;54190;49.770;9.250;2023-03-14T02:22:12;2.63;;;1.33;;
67272;SDS011;54190;49.770;9.250;2023-03-14T02:24:57;2.40;;;1.47;;
67272;SDS011;54190;49.770;9.250;2023-03-14T02:27:30;3.03;;;1.40;;
67272;SDS011;54190;49.770;9.250;2023-03-14T02:29:57;6.93;;;1.73;;
67272;SDS011;54190;49.770;9.250;2023-03-14T02:32:27;4.07;;;1.50;;
67272;SDS011;54190;49.770;9.250;2023-03-14T02:34:55;2.50;;;1.40;;
67272;SDS011;54190;49.770;9.250;2023-03-14T02:37:25;3.20;;;1.40;;
67272;SDS011;54190;49.770;9.250;2023-03-14T02:39:58;4.20;;;1.17;;
67272;SDS011;54190;49.770;9.250;2023-03-14T02:42:25;3.50;;;1.30;;
67272;SDS011;54190;49.770;9.250;2023-03-14T02:44:52;2.80;;;1.40;;
67272;SDS011;54190;49.770;9.250;2023-03-14T02:47:22;3.93;;;1.77;;
67272;SDS011;54190;49.770;9.250;2023-03-14T02:49:53;3.73;;;1.50;;
67272;SDS011;54190;49.770;9.250;2023-03-14T02:52:26;4.53;;;1.50;;
67272;SDS011;54190;49.770;9.250;2023-03-14T02:54:52;4.53;;;2.00;;
67272;SDS011;54190;49.770;9.250;2023-03-14T02:57:18;4.43;;;1.50;;
67272;SDS011;54190;49.770;9.250;2023-03-14T02:59:44;2.97;;;1.53;;
67272;SDS011;54190;49.770;9.250;2023-03-14T03:02:14;4.80;;;2.10;;
67272;SDS011;54190;49.770;9.250;2023-03-14T03:04:40;4.17;;;1.40;;
67272;SDS011;54190;49.770;9.250;2023-03-14T03:07:05;4.40;;;1.90;;
67272;SDS011;54190;49.770;9.250;2023-03-14T03:09:31;6.20;;;1.30;;
67272;SDS011;54190;49.770;9.250;2023-03-14T03:11:57;2.73;;;1.23;;
67272;SDS011;54190;49.770;9.250;2023-03-14T03:14:25;5.20;;;1.40;;
67272;SDS011;54190;49.770;9.250;2023-03-14T03:16:51;2.50;;;1.30;;
67272;SDS011;54190;49.770;9.250;2023-03-14T03:19:17;5.37;;;1.67;;
67272;SDS011;54190;49.770;9.250;2023-03-14T03:21:43;2.53;;;1.20;;
67272;SDS011;54190;49.770;9.250;2023-03-14T03:24:10;3.50;;;1.27;;
67272;SDS011;54190;49.770;9.250;2023-03-14T03:26:36;5.17;;;1.60;;
67272;SDS011;54190;49.770;9.250;2023-03-14T03:29:04;3.50;;;1.50;;
67272;SDS011;54190;49.770;9.250;2023-03-14T03:31:30;3.33;;;1.63;;
67272;SDS011;54190;49.770;9.250;2023-03-14T03:33:56;3.90;;;1.70;;
67272;SDS011;54190;49.770;9.250;2023-03-14T03:36:24;4.80;;;1.40;;
67272;SDS011;54190;49.770;9.250;2023-03-14T03:38:50;3.30;;;1.60;;
67272;SDS011;54190;49.770;9.250;2023-03-14T03:41:16;4.27;;;1.50;;
67272;SDS011;54190;49.770;9.250;2023-03-14T03:43:42;3.97;;;1.60;;
67272;SDS011;54190;49.770;9.250;2023-03-14T03:46:09;2.53;;;1.30;;
67272;SDS011;54190;49.770;9.250;2023-03-14T03:48:35;5.13;;;1.30;;
67272;SDS011;54190;49.770;9.250;2023-03-14T03:51:03;2.43;;;1.20;;
67272;SDS011;54190;49.770;9.250;2023-03-14T03:53:29;6.77;;;1.70;;
67272;SDS011;54190;49.770;9.250;2023-03-14T03:55:55;3.07;;;1.40;;
67272;SDS011;54190;49.770;9.250;2023-03-14T03:58:21;3.50;;;1.20;;
67272;SDS011;54190;49.770;9.250;2023-03-14T04:00:48;3.27;;;1.40;;
67272;SDS011;54190;49.770;9.250;2023-03-14T04:03:13;4.90;;;1.47;;
67272;SDS011;54190;49.770;9.250;2023-03-14T04:05:39;4.80;;;2.87;;
67272;SDS011;54190;49.770;9.250;2023-03-14T04:08:09;3.40;;;1.80;;
67272;SDS011;54190;49.770;9.250;2023-03-14T04:10:36;5.73;;;1.80;;
67272;SDS011;54190;49.770;9.250;2023-03-14T04:13:06;6.37;;;1.73;;
67272;SDS011;54190;49.770;9.250;2023-03-14T04:15:33;6.73;;;2.33;;
67272;SDS011;54190;49.770;9.250;2023-03-14T04:18:03;3.27;;;1.40;;
67272;SDS011;54190;49.770;9.250;2023-03-14T04:20:30;2.10;;;1.27;;
67272;SDS011;54190;49.770;9.250;2023-03-14T04:22:56;4.90;;;1.50;;
67272;SDS011;54190;49.770;9.250;2023-03-14T04:25:22;5.67;;;1.60;;
67272;SDS011;54190;49.770;9.250;2023-03-14T04:27:53;4.40;;;1.70;;
67272;SDS011;54190;49.770;9.250;2023-03-14T04:30:22;4.20;;;1.30;;
67272;SDS011;54190;49.770;9.250;2023-03-14T04:32:52;3.67;;;2.00;;
67272;SDS011;54190;49.770;9.250;2023-03-14T04:35:19;5.60;;;1.50;;
67272;SDS011;54190;49.770;9.250;2023-03-14T04:37:44;4.10;;;1.40;;
67272;SDS011;54190;49.770;9.250;2023-03-14T04:40:14;3.47;;;1.70;;
67272;SDS011;54190;49.770;9.250;2023-03-14T04:42:41;3.17;;;1.40;;
67272;SDS011;54190;49.770;9.250;2023-03-14T04:45:07;3.60;;;1.37;;
67272;SDS011;54190;49.770;9.250;2023-03-14T04:47:33;5.13;;;1.67;;
67272;SDS011;54190;49.770;9.250;2023-03-14T04:50:00;4.33;;;1.40;;
67272;SDS011;54190;49.770;9.250;2023-03-14T04:52:26;4.30;;;1.40;;
67272;SDS011;54190;49.770;9.250;2023-03-14T04:54:52;2.97;;;1.37;;
67272;SDS011;54190;49.770;9.250;2023-03-14T04:57:19;3.77;;;1.37;;
67272;SDS011;54190;49.770;9.250;2023-03-14T04:59:46;3.93;;;1.60;;
67272;SDS011;54190;49.770;9.250;2023-03-14T05:02:44;3.40;;;1.40;;
67272;SDS011;54190;49.770;9.250;2023-03-14T05:05:18;4.20;;;1.33;;
67272;SDS011;54190;49.770;9.250;2023-03-14T05:08:05;3.80;;;1.50;;
67272;SDS011;54190;49.770;9.250;2023-03-14T05:10:44;5.20;;;1.80;;
67272;SDS011;54190;49.770;9.250;2023-03-14T05:13:39;2.70;;;1.40;;
67272;SDS011;54190;49.770;9.250;2023-03-14T05:16:25;3.27;;;1.20;;
67272;SDS011;54190;49.770;9.250;2023-03-14T05:18:50;3.27;;;1.57;;
67272;SDS011;54190;49.770;9.250;2023-03-14T05:21:34;6.30;;;1.63;;
67272;SDS011;54190;49.770;9.250;2023-03-14T05:24:24;4.27;;;1.50;;
67272;SDS011;54190;49.770;9.250;2023-03-14T05:26:52;3.90;;;1.67;;
67272;SDS011;54190;49.770;9.250;2023-03-14T05:29:36;4.90;;;1.60;;
67272;SDS011;54190;49.770;9.250;2023-03-14T05:32:20;4.53;;;1.57;;
67272;SDS011;54190;49.770;9.250;2023-03-14T05:35:09;3.70;;;1.53;;
67272;SDS011;54190;49.770;9.250;2023-03-14T05:37:45;3.53;;;1.50;;
67272;SDS011;54190;49.770;9.250;2023-03-14T05:40:29;3.20;;;1.43;;
67272;SDS011;54190;49.770;9.250;2023-03-14T05:43:13;5.20;;;1.33;;
67272;SDS011;54190;49.770;9.250;2023-03-14T05:46:12;3.07;;;1.30;;
67272;SDS011;54190;49.770;9.250;2023-03-14T05:48:48;2.90;;;1.50;;
67272;SDS011;54190;49.770;9.250;2023-03-14T05:51:31;1.77;;;1.07;;
67272;SDS011;54190;49.770;9.250;2023-03-14T05:54:05;3.40;;;1.30;;
67272;SDS011;54190;49.770;9.250;2023-03-14T05:56:46;3.60;;;1.30;;
67272;SDS011;54190;49.770;9.250;2023-03-14T05:59:36;6.20;;;1.30;;
67272;SDS011;54190;49.770;9.250;2023-03-14T06:02:20;1.60;;;1.00;;
67272;SDS011;54190;49.770;9.250;2023-03-14T06:04:55;5.27;;;1.60;;
67272;SDS011;54190;49.770;9.250;2023-03-14T06:07:21;4.20;;;1.30;;
67272;SDS011;54190;49.770;9.250;2023-03-14T06:09:47;3.50;;;1.20;;
67272;SDS011;54190;49.770;9.250;2023-03-14T06:12:15;2.80;;;1.43;;
67272;SDS011;54190;49.770;9.250;2023-03-14T06:14:44;2.20;;;1.30;;
67272;SDS011;54190;49.770;9.250;2023-03-14T06:17:09;4.90;;;1.40;;
67272;SDS011;54190;49.770;9.250;2023-03-14T06:19:43;3.97;;;1.40;;
67272;SDS011;54190;49.770;9.250;2023-03-14T06:22:11;4.27;;;1.53;;
67272;SDS011;54190;49.770;9.250;2023-03-14T06:24:37;5.93;;;1.60;;
67272;SDS011;54190;49.770;9.250;2023-03-14T06:27:03;2.40;;;1.10;;
67272;SDS011;54190;49.770;9.250;2023-03-14T06:29:29;3.07;;;1.40;;
67272;SDS011;54190;49.770;9.250;2023-03-14T06:31:55;4.10;;;1.10;;
67272;SDS011;54190;49.770;9.250;2023-03-14T06:34:21;3.10;;;1.30;;
67272;SDS011;54190;49.770;9.250;2023-03-14T06:36:47;6.33;;;1.23;;
67272;SDS011;54190;49.770;9.250;2023-03-14T06:39:13;2.20;;;1.23;;
67272;SDS011;54190;49.770;9.250;2023-03-14T06:41:42;2.37;;;1.20;;
67272;SDS011;54190;49.770;9.250;2023-03-14T06:44:09;2.80;;;1.20;;
67272;SDS011;54190;49.770;9.250;2023-03-14T06:46:35;5.23;;;2.13;;
67272;SDS011;54190;49.770;9.250;2023-03-14T06:49:00;2.97;;;1.70;;
67272;SDS011;54190;49.770;9.250;2023-03-14T06:51:26;3.27;;;1.30;;
67272;SDS011;54190;49.770;9.250;2023-03-14T06:53:52;4.23;;;1.80;;
67272;SDS011;54190;49.770;9.250;2023-03-14T06:56:21;4.60;;;1.97;;
67272;SDS011;54190;49.770;9.250;2023-03-14T06:58:46;5.97;;;2.00;;
67272;SDS011;54190;49.770;9.250;2023-03-14T07:01:31;5.70;;;1.47;;
67272;SDS011;54190;49.770;9.250;2023-03-14T07:04:05;2.70;;;1.40;;
67272;SDS011;54190;49.770;9.250;2023-03-14T07:06:33;3.20;;;1.40;;
67272;SDS011;54190;49.770;9.250;2023-03-14T07:08:58;3.70;;;1.60;;
67272;SDS011;54190;49.770;9.250;2023-03-14T07:11:25;6.27;;;1.50;;
67272;SDS011;54190;49.770;9.250;2023-03-14T07:13:51;3.43;;;1.30;;
67272;SDS011;54190;49.770;9.250;2023-03-14T07:16:17;3.90;;;1.37;;
67272;SDS011;54190;49.770;9.250;2023-03-14T07:18:43;3.97;;;1.40;;
67272;SDS011;54190;49.770;9.250;2023-03-14T07:21:09;4.87;;;1.20;;
67272;SDS011;54190;49.770;9.250;2023-03-14T07:23:36;3.77;;;1.47;;
67272;SDS011;54190;49.770;9.250;2023-03-14T07:26:01;1.70;;;1.00;;
67272;SDS011;54190;49.770;9.250;2023-03-14T07:28:29;3.60;;;1.50;;
67272;SDS011;54190;49.770;9.250;2023-03-14T07:31:03;5.90;;;1.47;;
67272;SDS011;54190;49.770;9.250;2023-03-14T07:33:31;4.07;;;1.10;;
67272;SDS011;54190;49.770;9.250;2023-03-14T07:35:57;2.40;;;1.10;;
67272;SDS011;54190;49.770;9.250;2023-03-14T07:38:22;3.77;;;1.70;;
67272;SDS011;54190;49.770;9.250;2023-03-14T07:41:05;2.50;;;1.47;;
67272;SDS011;54190;49.770;9.250;2023-03-14T07:43:34;2.10;;;1.20;;
67272;SDS011;54190;49.770;9.250;2023-03-14T07:46:00;3.20;;;1.20;;
67272;SDS011;54190;49.770;9.250;2023-03-14T07:48:26;1.97;;;1.10;;
67272;SDS011;54190;49.770;9.250;2023-03-14T07:50:52;3.20;;;1.43;;
67272;SDS011;54190;49.770;9.250;2023-03-14T07:53:19;3.53;;;1.50;;
67272;SDS011;54190;49.770;9.250;2023-03-14T07:55:46;3.67;;;1.63;;
67272;SDS011;54190;49.770;9.250;2023-03-14T07:58:12;3.80;;;1.20;;
67272;SDS011;54190;49.770;9.250;2023-03-14T08:00:39;3.40;;;1.50;;
67272;SDS011;54190;49.770;9.250;2023-03-14T08:03:04;3.60;;;2.07;;
67272;SDS011;54190;49.770;9.250;2023-03-14T08:05:30;5.60;;;3.30;;
67272;SDS011;54190;49.770;9.250;2023-03-14T08:07:58;18.93;;;3.10;;
67272;SDS011;54190;49.770;9.250;2023-03-14T08:10:24;4.33;;;1.50;;
67272;SDS011;54190;49.770;9.250;2023-03-14T08:12:51;4.67;;;1.87;;
67272;SDS011;54190;49.770;9.250;2023-03-14T08:15:19;3.43;;;1.70;;
67272;SDS011;54190;49.770;9.250;2023-03-14T08:17:45;3.93;;;1.30;;
67272;SDS011;54190;49.770;9.250;2023-03-14T08:20:18;3.30;;;1.60;;
67272;SDS011;54190;49.770;9.250;2023-03-14T08:22:45;3.87;;;1.47;;
67272;SDS011;54190;49.770;9.250;2023-03-14T08:25:11;3.47;;;1.30;;
67272;SDS011;54190;49.770;9.250;2023-03-14T08:27:37;6.40;;;3.73;;
67272;SDS011;54190;49.770;9.250;2023-03-14T08:30:08;4.27;;;2.30;;
67272;SDS011;54190;49.770;9.250;2023-03-14T08:32:36;2.50;;;1.50;;
67272;SDS011;54190;49.770;9.250;2023-03-14T08:35:02;2.63;;;1.37;;
67272;SDS011;54190;49.770;9.250;2023-03-14T08:37:30;9.00;;;1.70;;
67272;SDS011;54190;49.770;9.250;2023-03-14T08:39:56;5.37;;;2.40;;
67272;SDS011;54190;49.770;9.250;2023-03-14T08:42:22;6.00;;;1.63;;
67272;SDS011;54190;49.770;9.250;2023-03-14T08:44:48;3.60;;;1.77;;
67272;SDS011;54190;49.770;9.250;2023-03-14T08:47:15;3.07;;;1.30;;
67272;SDS011;54190;49.770;9.250;2023-03-14T08:49:41;2.10;;;1.40;;
67272;SDS011;54190;49.770;9.250;2023-03-14T08:52:07;2.03;;;1.20;;
67272;SDS011;54190;49.770;9.250;2023-03-14T08:54:33;2.10;;;1.20;;
67272;SDS011;54190;49.770;9.250;2023-03-14T08:56:58;3.60;;;1.70;;
67272;SDS011;54190;49.770;9.250;2023-03-14T08:59:24;1.70;;;1.00;;
67272;SDS011;54190;49.770;9.250;2023-03-14T09:01:50;2.27;;;1.40;;
67272;SDS011;54190;49.770;9.250;2023-03-14T09:04:16;3.93;;;1.80;;
67272;SDS011;54190;49.770;9.250;2023-03-14T09:06:41;3.00;;;1.10;;
67272;SDS011;54190;49.770;9.250;2023-03-14T09:09:07;2.73;;;1.20;;
67272;SDS011;54190;49.770;9.250;2023-03-14T09:11:33;3.10;;;1.83;;
67272;SDS011;54190;49.770;9.250;2023-03-14T09:13:59;4.87;;;1.77;;
67272;SDS011;54190;49.770;9.250;2023-03-14T09:16:25;7.00;;;1.30;;
67272;SDS011;54190;49.770;9.250;2023-03-14T09:18:51;4.87;;;1.33;;
67272;SDS011;54190;49.770;9.250;2023-03-14T09:21:20;2.10;;;1.30;;
67272;SDS011;54190;49.770;9.250;2023-03-14T09:23:46;2.30;;;1.50;;
67272;SDS011;54190;49.770;9.250;2023-03-14T09:26:12;3.93;;;1.23;;
67272;SDS011;54190;49.770;9.250;2023-03-14T09:28:38;2.87;;;1.20;;
67272;SDS011;54190;49.770;9.250;2023-03-14T09:31:07;3.20;;;1.10;;
67272;SDS011;54190;49.770;9.250;2023-03-14T09:33:35;2.73;;;1.07;;
67272;SDS011;54190;49.770;9.250;2023-03-14T09:36:02;1.90;;;0.90;;
67272;SDS011;54190;49.770;9.250;2023-03-14T09:38:28;2.07;;;1.10;;
67272;SDS011;54190;49.770;9.250;2023-03-14T09:40:54;2.00;;;1.10;;
67272;SDS011;54190;49.770;9.250;2023-03-14T09:43:21;2.27;;;1.20;;
67272;SDS011;54190;49.770;9.250;2023-03-14T09:45:49;4.07;;;1.30;;
67272;SDS011;54190;49.770;9.250;2023-03-14T09:48:17;2.80;;;1.00;;
67272;SDS011;54190;49.770;9.250;2023-03-14T09:50:47;3.00;;;1.13;;
67272;SDS011;54190;49.770;9.250;2023-03-14T09:53:19;2.93;;;1.40;;
67272;SDS011;54190;49.770;9.250;2023-03-14T09:55:49;1.97;;;1.20;;
67272;SDS011;54190;49.770;9.250;2023-03-14T09:58:16;1.70;;;0.93;;
67272;SDS011;54190;49.770;9.250;2023-03-14T10:00:45;3.37;;;1.27;;
67272;SDS011;54190;49.770;9.250;2023-03-14T10:05:36;2.43;;;1.00;;
67272;SDS011;54190;49.770;9.250;2023-03-14T10:08:02;1.83;;;1.23;;
67272;SDS011;54190;49.770;9.250;2023-03-14T10:10:28;4.37;;;1.27;;
67272;SDS011;54190;49.770;9.250;2023-03-14T10:12:55;2.73;;;1.10;;
67272;SDS011;54190;49.770;9.250;2023-03-14T10:15:32;1.83;;;1.03;;
67272;SDS011;54190;49.770;9.250;2023-03-14T10:18:00;2.67;;;1.10;;
67272;SDS011;54190;49.770;9.250;2023-03-14T10:20:34;1.40;;;0.90;;
67272;SDS011;54190;49.770;9.250;2023-03-14T10:23:05;2.00;;;1.10;;
67272;SDS011;54190;49.770;9.250;2023-03-14T10:25:44;2.50;;;1.17;;
67272;SDS011;54190;49.770;9.250;2023-03-14T10:28:31;3.43;;;1.20;;
67272;SDS011;54190;49.770;9.250;2023-03-14T10:31:25;3.60;;;1.07;;
67272;SDS011;54190;49.770;9.250;2023-03-14T10:33:58;1.97;;;0.90;;
67272;SDS011;54190;49.770;9.250;2023-03-14T10:36:29;1.50;;;0.90;;
67272;SDS011;54190;49.770;9.250;2023-03-14T10:42:05;2.13;;;1.00;;
67272;SDS011;54190;49.770;9.250;2023-03-14T10:44:48;1.77;;;0.97;;
67272;SDS011;54190;49.770;9.250;2023-03-14T10:47:21;1.70;;;0.90;;
67272;SDS011;54190;49.770;9.250;2023-03-14T10:49:49;1.63;;;0.90;;
67272;SDS011;54190;49.770;9.250;2023-03-14T10:52:22;1.80;;;0.97;;
67272;SDS011;54190;49.770;9.250;2023-03-14T10:54:59;1.90;;;0.90;;
67272;SDS011;54190;49.770;9.250;2023-03-14T10:57:27;3.30;;;0.90;;
67272;SDS011;54190;49.770;9.250;2023-03-14T10:59:53;1.47;;;0.80;;
67272;SDS011;54190;49.770;9.250;2023-03-14T11:05:12;1.40;;;0.70;;
67272;SDS011;54190;49.770;9.250;2023-03-14T11:07:45;2.37;;;1.03;;
67272;SDS011;54190;49.770;9.250;2023-03-14T11:10:14;1.97;;;1.00;;
67272;SDS011;54190;49.770;9.250;2023-03-14T11:26:48;1.90;;;0.93;;
67272;SDS011;54190;49.770;9.250;2023-03-14T11:29:20;1.67;;;1.00;;
67272;SDS011;54190;49.770;9.250;2023-03-14T11:31:57;1.73;;;0.93;;
67272;SDS011;54190;49.770;9.250;2023-03-14T11:37:01;2.33;;;1.10;;
67272;SDS011;54190;49.770;9.250;2023-03-14T11:39:40;2.13;;;1.10;;
67272;SDS011;54190;49.770;9.250;2023-03-14T11:42:12;2.50;;;1.10;;
67272;SDS011;54190;49.770;9.250;2023-03-14T11:44:40;1.60;;;1.00;;
67272;SDS011;54190;49.770;9.250;2023-03-14T11:50:17;1.87;;;1.10;;
67272;SDS011;54190;49.770;9.250;2023-03-14T11:53:05;1.97;;;1.07;;
67272;SDS011;54190;49.770;9.250;2023-03-14T11:55:37;1.60;;;1.00;;
67272;SDS011;54190;49.770;9.250;2023-03-14T11:58:19;1.70;;;1.00;;
67272;SDS011;54190;49.770;9.250;2023-03-14T12:00:51;1.50;;;0.90;;
67272;SDS011;54190;49.770;9.250;2023-03-14T12:11:11;1.70;;;1.00;;
67272;SDS011;54190;49.770;9.250;2023-03-14T12:13:39;1.80;;;0.90;;
67272;SDS011;54190;49.770;9.250;2023-03-14T12:16:19;2.43;;;1.10;;
67272;SDS011;54190;49.770;9.250;2023-03-14T12:18:49;1.60;;;1.00;;
67272;SDS011;54190;49.770;9.250;2023-03-14T12:21:15;2.10;;;0.90;;
67272;SDS011;54190;49.770;9.250;2023-03-14T12:28:36;1.53;;;1.10;;
67272;SDS011;54190;49.770;9.250;2023-03-14T12:46:59;2.10;;;1.10;;
67272;SDS011;54190;49.770;9.250;2023-03-14T12:49:32;1.90;;;0.90;;
67272;SDS011;54190;49.770;9.250;2023-03-14T12:52:04;1.60;;;1.00;;
67272;SDS011;54190;49.770;9.250;2023-03-14T12:54:50;2.13;;;1.50;;
67272;SDS011;54190;49.770;9.250;2023-03-14T13:00:02;1.93;;;1.50;;
67272;SDS011;54190;49.770;9.250;2023-03-14T13:02:49;1.90;;;1.23;;
67272;SDS011;54190;49.770;9.250;2023-03-14T13:05:19;2.50;;;1.50;;
67272;SDS011;54190;49.770;9.250;2023-03-14T13:12:48;3.30;;;1.70;;
67272;SDS011;54190;49.770;9.250;2023-03-14T13:18:09;4.90;;;3.50;;
67272;SDS011;54190;49.770;9.250;2023-03-14T13:20:39;3.00;;;2.20;;
67272;SDS011;54190;49.770;9.250;2023-03-14T13:23:19;3.03;;;2.27;;
67272;SDS011;54190;49.770;9.250;2023-03-14T13:25:56;7.07;;;4.90;;
67272;SDS011;54190;49.770;9.250;2023-03-14T13:28:22;7.37;;;3.40;;
67272;SDS011;54190;49.770;9.250;2023-03-14T13:30:49;8.20;;;4.40;;
67272;SDS011;54190;49.770;9.250;2023-03-14T13:33:20;7.40;;;4.67;;
67272;SDS011;54190;49.770;9.250;2023-03-14T13:36:04;6.97;;;4.77;;
67272;SDS011;54190;49.770;9.250;2023-03-14T13:38:32;2.47;;;1.57;;
67272;SDS011;54190;49.770;9.250;2023-03-14T13:41:00;2.23;;;1.53;;
67272;SDS011;54190;49.770;9.250;2023-03-14T13:43:33;3.13;;;1.70;;
67272;SDS011;54190;49.770;9.250;2023-03-14T13:46:07;2.30;;;1.37;;
67272;SDS011;54190;49.770;9.250;2023-03-14T13:48:44;1.40;;;0.87;;
67272;SDS011;54190;49.770;9.250;2023-03-14T13:51:21;1.90;;;0.80;;
67272;SDS011;54190;49.770;9.250;2023-03-14T13:53:51;1.57;;;0.90;;
67272;SDS011;54190;49.770;9.250;2023-03-14T13:56:19;5.10;;;2.87;;
67272;SDS011;54190;49.770;9.250;2023-03-14T13:58:46;2.10;;;1.50;;
67272;SDS011;54190;49.770;9.250;2023-03-14T14:01:14;1.47;;;0.80;;
67272;SDS011;54190;49.770;9.250;2023-03-14T14:03:56;5.67;;;3.53;;
67272;SDS011;54190;49.770;9.250;2023-03-14T14:08:57;2.30;;;1.80;;
67272;SDS011;54190;49.770;9.250;2023-03-14T14:14:11;4.53;;;2.97;;
67272;SDS011;54190;49.770;9.250;2023-03-14T14:16:39;2.37;;;1.80;;
67272;SDS011;54190;49.770;9.250;2023-03-14T14:19:06;4.20;;;2.63;;
67272;SDS011;54190;49.770;9.250;2023-03-14T14:21:32;3.50;;;2.10;;
67272;SDS011;54190;49.770;9.250;2023-03-14T14:23:58;3.47;;;1.93;;
67272;SDS011;54190;49.770;9.250;2023-03-14T14:26:25;4.00;;;2.63;;
67272;SDS011;54190;49.770;9.250;2023-03-14T14:28:58;4.30;;;1.47;;
67272;SDS011;54190;49.770;9.250;2023-03-14T14:31:28;4.43;;;1.70;;
67272;SDS011;54190;49.770;9.250;2023-03-14T14:33:55;3.13;;;1.30;;
67272;SDS011;54190;49.770;9.250;2023-03-14T14:36:25;1.80;;;1.27;;
67272;SDS011;54190;49.770;9.250;2023-03-14T14:39:20;7.87;;;3.57;;
67272;SDS011;54190;49.770;9.250;2023-03-14T14:41:51;4.00;;;3.00;;
67272;SDS011;54190;49.770;9.250;2023-03-14T14:44:25;3.37;;;2.83;;
67272;SDS011;54190;49.770;9.250;2023-03-14T14:46:55;3.37;;;2.20;;
67272;SDS011;54190;49.770;9.250;2023-03-14T14:49:21;14.43;;;9.23;;
67272;SDS011;54190;49.770;9.250;2023-03-14T14:52:04;12.33;;;7.73;;
67272;SDS011;54190;49.770;9.250;2023-03-14T14:54:38;6.07;;;3.20;;
67272;SDS011;54190;49.770;9.250;2023-03-14T14:57:26;15.17;;;9.30;;
67272;SDS011;54190;49.770;9.250;2023-03-14T14:59:55;5.40;;;3.77;;
67272;SDS011;54190;49.770;9.250;2023-03-14T15:04:57;4.80;;;3.27;;
67272;SDS011;54190;49.770;9.250;2023-03-14T15:07:24;17.20;;;9.50;;
67272;SDS011;54190;49.770;9.250;2023-03-14T15:09:49;6.40;;;3.53;;
67272;SDS011;54190;49.770;9.250;2023-03-14T15:12:15;3.60;;;2.20;;
67272;SDS011;54190;49.770;9.250;2023-03-14T15:14:41;4.50;;;2.43;;
67272;SDS011;54190;49.770;9.250;2023-03-14T15:17:09;4.40;;;2.37;;
67272;SDS011;54190;49.770;9.250;2023-03-14T15:19:36;2.80;;;1.97;;
67272;SDS011;54190;49.770;9.250;2023-03-14T15:22:02;3.73;;;2.50;;
67272;SDS011;54190;49.770;9.250;2023-03-14T15:24:28;5.40;;;2.20;;
67272;SDS011;54190;49.770;9.250;2023-03-14T15:26:54;4.70;;;2.17;;
67272;SDS011;54190;49.770;9.250;2023-03-14T15:29:19;5.83;;;2.90;;
67272;SDS011;54190;49.770;9.250;2023-03-14T15:31:45;6.00;;;4.07;;
67272;SDS011;54190;49.770;9.250;2023-03-14T15:34:10;7.03;;;5.10;;
67272;SDS011;54190;49.770;9.250;2023-03-14T15:36:36;2.83;;;2.13;;
67272;SDS011;54190;49.770;9.250;2023-03-14T15:39:03;3.90;;;3.07;;
67272;SDS011;54190;49.770;9.250;2023-03-14T15:41:30;4.30;;;2.00;;
67272;SDS011;54190;49.770;9.250;2023-03-14T15:43:56;3.10;;;2.03;;
67272;SDS011;54190;49.770;9.250;2023-03-14T15:46:22;4.67;;;4.00;;
67272;SDS011;54190;49.770;9.250;2023-03-14T15:48:49;3.20;;;1.90;;
67272;SDS011;54190;49.770;9.250;2023-03-14T15:51:16;2.97;;;1.67;;
67272;SDS011;54190;49.770;9.250;2023-03-14T15:53:42;8.73;;;6.90;;
67272;SDS011;54190;49.770;9.250;2023-03-14T15:56:26;10.37;;;6.93;;
67272;SDS011;54190;49.770;9.250;2023-03-14T15:58:55;13.37;;;9.00;;
67272;SDS011;54190;49.770;9.250;2023-03-14T16:01:21;11.30;;;8.00;;
67272;SDS011;54190;49.770;9.250;2023-03-14T16:03:47;3.53;;;2.10;;
67272;SDS011;54190;49.770;9.250;2023-03-14T16:06:14;2.73;;;1.80;;
67272;SDS011;54190;49.770;9.250;2023-03-14T16:08:40;4.30;;;2.63;;
67272;SDS011;54190;49.770;9.250;2023-03-14T16:11:08;18.70;;;7.63;;
67272;SDS011;54190;49.770;9.250;2023-03-14T16:13:36;10.37;;;5.10;;
67272;SDS011;54190;49.770;9.250;2023-03-14T16:16:03;4.73;;;2.73;;
67272;SDS011;54190;49.770;9.250;2023-03-14T16:18:30;6.33;;;3.60;;
67272;SDS011;54190;49.770;9.250;2023-03-14T16:20:59;4.00;;;2.87;;
67272;SDS011;54190;49.770;9.250;2023-03-14T16:23:26;6.40;;;4.30;;